Latest Weather Observations for Port Lincoln Airport

IDS60801

Issued at 3:02 pm CST Saturday 23 May 2015 (issued every 30 minutes, with the page automatically refreshed every 10 minutes)

About weather observations | Map of weather stations | Latest weather observations for SA | Other Formats
Station Details ID: 018192 Name: PORT LINCOLN AWS Lat: -34.60 Lon: 135.88 Height: 8.5 m
Data from the previous 72 hours. | See also: Recent months at Port Lincoln Airport
Date/Time
CST
Temp
°C
App
Temp
°C
Dew
Point
Rel
Hum
%
Delta-T
°C
Wind Press
QNH
hPa
Press
MSL
hPa
Rain
since 9 am
mm
Dir
 
Spd
km/h
Gust
km/h
Spd
kts
Gust
kts
23/03:00pm 15.0 11.6 11.4 79 1.9 ENE 20 24 11 13 1027.9 1027.9 0.0
23/02:30pm 14.5 10.9 10.7 78 2.0 ENE 20 24 11 13 1028.1 1028.1 0.0
23/02:00pm 14.5 10.9 10.5 77 2.1 ENE 20 24 11 13 1028.4 1028.4 0.0
23/01:30pm 14.9 11.5 10.5 75 2.3 ENE 19 22 10 12 1028.5 1028.5 0.0
23/01:00pm 14.8 11.4 10.6 76 2.2 ENE 19 24 10 13 1028.7 1028.7 0.0
23/12:30pm 15.0 11.5 10.2 73 2.5 ENE 19 24 10 13 1029.1 1029.1 0.0
23/12:00pm 15.1 11.6 10.9 76 2.2 ENE 20 26 11 14 1029.7 1029.7 0.0
23/11:30am 15.3 11.7 10.5 73 2.5 ENE 20 28 11 15 1030.2 1030.2 0.0
23/11:00am 14.9 11.5 10.5 75 2.3 NE 19 24 10 13 1030.6 1030.6 0.0
23/10:30am 14.6 10.9 10.0 74 2.4 NE 20 26 11 14 1030.6 1030.6 0.0
23/10:00am 13.9 10.1 9.9 77 2.1 NE 20 26 11 14 1030.8 1030.8 0.0
23/09:30am 13.4 10.5 9.6 78 1.9 NNE 15 20 8 11 1030.9 1030.9 0.0
23/09:00am 12.6 11.3 10.0 84 1.3 NNE 7 11 4 6 1031.1 1031.1 0.2
23/08:30am 10.4 8.9 9.2 92 0.6 NNW 7 9 4 5 1031.1 1031.1 0.2
23/08:00am 8.1 5.6 6.7 91 0.6 N 9 9 5 5 1031.0 1031.0 0.2
23/07:30am 8.4 6.4 6.9 90 0.7 NW 7 9 4 5 1031.1 1031.1 0.2
23/07:00am 8.9 7.0 7.5 91 0.7 N 7 7 4 4 1031.0 1031.0 0.2
23/06:30am 8.7 6.3 7.2 90 0.7 N 9 11 5 6 1030.8 1030.8 0.2
23/06:00am 8.4 5.9 6.7 89 0.8 N 9 11 5 6 1030.5 1030.5 0.2
23/05:30am 9.8 8.0 7.9 88 0.9 N 7 9 4 5 1030.3 1030.3 0.2
23/05:00am 9.0 6.9 6.6 85 1.1 N 7 9 4 5 1030.1 1030.1 0.2
23/04:30am 10.5 8.5 8.8 89 0.8 NNE 9 19 5 10 1030.0 1030.0 0.2
23/04:00am 10.6 8.5 8.2 85 1.2 NNE 9 13 5 7 1030.1 1030.1 0.2
23/03:30am 10.7 8.2 8.1 84 1.3 N 11 13 6 7 1030.3 1030.3 0.2
23/03:00am 11.9 9.3 9.3 84 1.3 ENE 13 20 7 11 1030.5 1030.5 0.2
23/02:30am 12.4 8.8 8.3 76 2.0 NE 17 22 9 12 1030.7 1030.7 0.2
23/02:00am 13.1 9.2 9.5 79 1.8 ENE 20 24 11 13 1030.7 1030.7 0.2
23/01:30am 11.3 8.1 7.0 75 2.0 ENE 13 17 7 9 1030.9 1030.9 0.2
23/01:00am 12.8 9.8 7.5 70 2.6 E 13 19 7 10 1031.0 1031.0 0.2
23/12:30am 11.4 8.4 6.1 70 2.5 ENE 11 13 6 7 1031.0 1031.0 0.2
23/12:00am 13.0 9.5 7.2 68 2.8 ESE 15 20 8 11 1031.4 1031.4 0.2
 
Date/Time
CST
Temp
°C
App
Temp
°C
Dew
Point
Rel
Hum
%
Delta-T
°C
Wind Press
QNH
hPa
Press
MSL
hPa
Rain
since 9 am
mm
Dir
 
Spd
km/h
Gust
km/h
Spd
kts
Gust
kts
22/11:30pm 13.2 9.3 7.2 67 2.9 ESE 17 20 9 11 1031.4 1031.4 0.2
22/11:00pm 12.9 9.8 7.1 68 2.8 ESE 13 15 7 8 1031.4 1031.4 0.2
22/10:30pm 13.4 9.6 7.4 67 2.9 ESE 17 24 9 13 1031.6 1031.6 0.2
22/10:00pm 13.7 9.1 8.1 69 2.8 E 22 26 12 14 1031.6 1031.6 0.2
22/09:30pm 13.0 11.5 10.7 86 1.2 ENE 9 13 5 7 1031.5 1031.5 0.2
22/09:00pm 13.3 11.1 10.8 85 1.3 E 13 17 7 9 1031.5 1031.5 0.2
22/08:30pm 13.2 10.1 10.4 83 1.4 E 17 20 9 11 1031.5 1031.5 0.2
22/08:00pm 13.2 10.1 10.4 83 1.5 E 17 22 9 12 1031.5 1031.5 0.2
22/07:41pm 12.6 10.4 10.8 89 0.9 NE 13 17 7 9 1031.4 1031.4 0.2
22/07:30pm 12.3 8.9 10.5 89 0.9 NE 19 24 10 13 1031.4 1031.4 0.2
22/07:26pm 12.5 9.1 10.7 89 0.9 ENE 19 24 10 13 1031.3 1031.3 0.2
22/07:00pm 13.0 10.7 10.5 85 1.3 ENE 13 17 7 9 1031.2 1031.2 0.0
22/06:30pm 12.6 9.9 10.5 87 1.1 NE 15 19 8 10 1031.1 1031.1 0.0
22/06:00pm 11.8 9.4 9.9 88 1.0 ENE 13 15 7 8 1031.1 1031.1 0.0
22/05:44pm 12.6 10.3 10.3 86 1.2 ENE 13 17 7 9 1031.0 1031.0 0.0
22/05:30pm 13.1 10.8 10.6 85 1.3 ENE 13 17 7 9 1031.0 1031.0 0.0
22/05:07pm 13.6 11.8 10.9 84 1.4 ENE 11 15 6 8 1031.1 1031.1 0.0
22/05:00pm 13.5 12.0 10.7 83 1.5 ENE 9 13 5 7 1031.1 1031.1 0.0
22/04:30pm 13.5 11.2 10.5 82 1.6 ENE 13 15 7 8 1031.1 1031.1 0.0
22/04:00pm 14.7 12.7 11.5 81 1.7 E 13 15 7 8 1031.1 1031.1 0.0
22/03:30pm 14.7 12.6 11.1 79 1.9 E 13 17 7 9 1031.0 1031.0 0.0
22/03:00pm 15.1 13.3 12.1 82 1.6 E 13 17 7 9 1030.9 1030.9 0.0
22/02:30pm 14.9 12.9 11.5 80 1.8 E 13 19 7 10 1031.2 1031.2 0.0
22/02:00pm 15.4 12.9 11.2 76 2.2 ENE 15 19 8 10 1031.3 1031.3 0.0
22/01:30pm 15.4 13.3 11.2 76 2.2 ENE 13 20 7 11 1031.5 1031.5 0.0
22/01:00pm 15.5 13.2 11.9 79 2.0 E 15 19 8 10 1031.8 1031.8 0.0
22/12:30pm 15.6 12.8 11.4 76 2.2 ENE 17 24 9 13 1032.0 1032.0 0.0
22/12:00pm 15.8 13.3 12.2 79 2.0 ENE 17 22 9 12 1032.4 1032.4 0.0
22/11:30am 15.8 13.1 11.8 77 2.1 E 17 22 9 12 1032.8 1032.8 0.0
22/11:00am 15.4 12.7 11.8 79 1.9 E 17 20 9 11 1032.9 1032.9 0.0
22/10:30am 15.3 13.3 11.5 78 2.0 E 13 19 7 10 1033.1 1033.1 0.0
22/10:00am 14.2 13.5 12.1 87 1.1 S 7 9 4 5 1033.0 1033.0 0.0
22/09:30am 13.1 12.8 11.3 89 0.9 WNW 4 11 2 6 1032.8 1032.8 0.0
22/09:00am 11.5 10.3 10.2 92 0.7 NNW 7 7 4 4 1032.6 1032.6 2.4
22/08:30am 10.5 9.1 9.7 95 0.4 NNW 7 9 4 5 1032.4 1032.4 2.4
22/08:00am 9.0 7.4 8.7 98 0.1 WNW 7 9 4 5 1032.1 1032.1 2.4
22/07:30am 7.0 4.9 6.6 97 0.2 NW 7 9 4 5 1032.0 1032.0 2.4
22/07:00am 7.3 4.9 7.0 98 0.1 NW 9 11 5 6 1031.5 1031.5 2.4
22/06:30am 6.9 4.4 6.6 98 0.1 NW 9 11 5 6 1031.2 1031.2 2.4
22/06:00am 7.1 5.0 6.8 98 0.1 NW 7 7 4 4 1030.8 1030.8 2.4
22/05:30am 7.7 5.8 7.4 98 0.1 WNW 7 9 4 5 1030.5 1030.5 2.4
22/05:00am 7.4 5.4 7.1 98 0.1 NW 7 9 4 5 1030.3 1030.3 2.4
22/04:30am 7.3 4.5 7.0 98 0.1 NW 11 11 6 6 1030.3 1030.3 2.4
22/04:00am 6.9 4.0 6.6 98 0.1 NW 11 11 6 6 1030.2 1030.2 2.2
22/03:30am 6.8 3.5 6.5 98 0.1 NW 13 15 7 8 1030.3 1030.3 2.2
22/03:00am 7.3 4.5 7.0 98 0.1 WNW 11 13 6 7 1030.6 1030.6 2.2
22/02:30am 6.9 6.1 6.5 97 0.2 CALM 0 0 0 0 1030.7 1030.7 2.2
22/02:00am 7.6 6.6 7.3 98 0.1 N 2 6 1 3 1030.8 1030.8 2.2
22/01:30am 7.4 5.4 7.1 98 0.1 WNW 7 9 4 5 1030.6 1030.6 2.2
22/01:00am 7.7 5.7 7.3 97 0.2 WNW 7 9 4 5 1030.7 1030.7 2.0
22/12:30am 8.8 6.7 8.4 97 0.2 WSW 9 11 5 6 1030.9 1030.9 2.0
22/12:00am 8.4 6.6 8.1 98 0.1 W 7 7 4 4 1030.9 1030.9 2.0
 
Date/Time
CST
Temp
°C
App
Temp
°C
Dew
Point
Rel
Hum
%
Delta-T
°C
Wind Press
QNH
hPa
Press
MSL
hPa
Rain
since 9 am
mm
Dir
 
Spd
km/h
Gust
km/h
Spd
kts
Gust
kts
21/11:30pm 7.2 5.3 6.6 96 0.3 WNW 6 9 3 5 1030.9 1030.9 2.0
21/11:00pm 7.9 5.2 7.3 96 0.3 WNW 11 13 6 7 1031.0 1031.0 2.0
21/10:30pm 8.3 5.9 7.2 93 0.5 WSW 9 11 5 6 1031.1 1031.1 2.0
21/10:00pm 9.2 8.8 8.3 94 0.4 CALM 0 0 0 0 1031.0 1031.0 2.0
21/09:30pm 9.0 6.4 7.8 92 0.6 WSW 11 15 6 8 1031.0 1031.0 2.0
21/09:00pm 9.9 6.4 8.7 92 0.6 WSW 17 19 9 10 1030.8 1030.8 2.0
21/08:30pm 9.7 6.5 8.6 93 0.5 WSW 15 17 8 9 1030.7 1030.7 2.0
21/08:00pm 9.6 6.5 8.7 94 0.4 WSW 15 17 8 9 1030.6 1030.6 2.0
21/07:30pm 9.9 6.8 8.8 93 0.5 WSW 15 17 8 9 1030.7 1030.7 2.0
21/07:00pm 10.3 8.3 8.7 90 0.8 SW 9 15 5 8 1030.6 1030.6 2.0
21/06:30pm 10.6 8.7 9.2 91 0.7 WSW 9 11 5 6 1030.5 1030.5 2.0
21/06:00pm 10.4 8.0 8.5 88 0.9 SW 11 20 6 11 1030.2 1030.2 2.0
21/05:30pm 10.6 9.0 8.7 88 0.9 SW 7 9 4 5 1029.9 1029.9 2.0
21/05:00pm 11.6 10.2 9.7 88 1.0 WSW 7 11 4 6 1029.7 1029.7 2.0
21/04:30pm 11.6 10.0 10.3 92 0.7 WSW 9 13 5 7 1029.5 1029.5 2.0
21/04:27pm 11.4 9.4 10.0 91 0.7 SW 11 17 6 9 1029.5 1029.5 2.0
21/04:08pm 11.5 7.8 10.1 91 0.7 S 20 33 11 18 1029.6 1029.6 2.0
21/04:00pm 13.5 11.4 9.6 77 2.0 S 11 13 6 7 1029.4 1029.4 1.6
21/03:30pm 12.8 10.0 10.0 83 1.4 SSE 15 20 8 11 1029.3 1029.3 1.6
21/03:00pm 13.0 9.6 10.5 85 1.3 S 19 22 10 12 1029.2 1029.2 1.6
21/02:30pm 12.9 9.2 10.1 83 1.4 SE 20 26 11 14 1029.1 1029.1 1.6
21/02:01pm 11.8 8.7 10.4 91 0.7 SE 17 20 9 11 1029.3 1029.3 1.6
21/02:00pm 11.8 8.8 10.5 92 0.7 SE 17 20 9 11 1029.3 1029.3 1.6
21/01:32pm 12.1 11.5 10.5 90 0.8 SSE 4 13 2 7 1029.5 1029.5 1.0
21/01:30pm 12.1 11.8 10.2 88 1.0 SE 2 11 1 6 1029.5 1029.5 0.8
21/01:25pm 12.0 12.0 9.7 86 1.2 CALM 0 0 0 0 1029.4 1029.4 0.8
21/01:00pm 12.2 11.7 10.8 91 0.7 SE 4 7 2 4 1029.6 1029.6 0.6
21/12:41pm 12.0 10.9 9.9 87 1.1 SW 6 9 3 5 1029.7 1029.7 0.4
21/12:30pm 11.9 10.7 9.6 86 1.2 WSW 6 9 3 5 1029.7 1029.7 0.4
21/12:19pm 11.5 10.4 9.9 90 0.8 W 6 9 3 5 1029.8 1029.8 0.4
21/12:00pm 11.3 8.5 10.0 92 0.7 S 15 19 8 10 1030.1 1030.1 0.4
21/11:40am 11.9 7.9 10.3 90 0.8 SSE 22 28 12 15 1030.2 1030.2 0.0
21/11:30am 13.0 8.5 10.2 83 1.4 SE 24 28 13 15 1030.1 1030.1 0.0
21/11:00am 12.7 9.6 10.2 85 1.3 SSW 17 33 9 18 1030.1 1030.1 0.0
21/10:30am 12.9 10.4 9.7 81 1.6 SSE 13 20 7 11 1030.1 1030.1 0.0
21/10:00am 11.6 9.4 9.5 87 1.1 S 11 15 6 8 1030.0 1030.0 0.0
21/09:30am 11.7 10.0 9.9 89 0.9 SSW 9 13 5 7 1029.8 1029.8 0.0
21/09:20am 11.4 9.3 9.8 90 0.8 SSW 11 13 6 7 1029.7 1029.7 0.0
21/09:03am 10.9 8.0 9.7 92 0.6 SSW 15 19 8 10 1029.7 1029.7 0.0
21/09:00am 10.9 8.3 9.5 91 0.7 SSW 13 19 7 10 1029.7 1029.7 1.6
21/08:30am 10.6 8.3 9.0 90 0.8 WSW 11 15 6 8 1029.4 1029.4 1.6
21/08:00am 10.4 8.9 9.2 92 0.6 WSW 7 9 4 5 1029.1 1029.1 1.6
21/07:30am 10.2 7.0 8.6 90 0.8 SSW 15 20 8 11 1028.8 1028.8 1.6
21/07:00am 10.0 6.8 8.6 91 0.7 SW 15 20 8 11 1028.4 1028.4 1.6
21/06:30am 9.5 5.4 7.8 89 0.8 WSW 19 24 10 13 1027.9 1027.9 1.6
21/06:00am 9.6 6.2 7.7 88 0.9 SW 15 20 8 11 1027.5 1027.5 1.6
21/05:30am 9.9 5.6 7.8 87 1.0 SSW 20 28 11 15 1027.1 1027.1 1.4
21/05:00am 9.3 7.1 7.9 91 0.7 SW 9 13 5 7 1027.1 1027.1 1.4
21/04:30am 9.7 7.2 8.3 91 0.7 SW 11 15 6 8 1026.9 1026.9 1.4
21/04:00am 10.3 4.4 9.2 93 0.5 S 30 39 16 21 1026.9 1026.9 1.4
21/03:42am 10.5 5.2 8.4 87 1.0 SSW 26 39 14 21 1026.8 1026.8 1.2
21/03:30am 10.4 7.5 8.3 87 1.0 SSW 13 17 7 9 1026.8 1026.8 1.2
21/03:00am 10.0 6.4 8.4 90 0.8 SSW 17 20 9 11 1026.7 1026.7 1.2
21/02:30am 9.7 6.5 8.5 92 0.6 SW 15 20 8 11 1026.7 1026.7 1.2
21/02:00am 9.3 6.4 8.2 93 0.5 SW 13 17 7 9 1026.6 1026.6 1.2
21/01:30am 9.6 6.4 8.5 93 0.5 SW 15 20 8 11 1026.6 1026.6 1.2
21/01:00am 9.6 7.0 7.7 88 0.9 SW 11 19 6 10 1026.4 1026.4 1.2
21/12:30am 10.0 6.6 7.8 86 1.0 SW 15 20 8 11 1026.3 1026.3 1.2
21/12:00am 9.0 5.5 7.3 89 0.8 WSW 15 19 8 10 1026.1 1026.1 1.2
 
Date/Time
CST
Temp
°C
App
Temp
°C
Dew
Point
Rel
Hum
%
Delta-T
°C
Wind Press
QNH
hPa
Press
MSL
hPa
Rain
since 9 am
mm
Dir
 
Spd
km/h
Gust
km/h
Spd
kts
Gust
kts
20/11:30pm 9.4 5.9 7.3 87 1.0 SW 15 20 8 11 1026.1 1026.1 1.2
20/11:00pm 9.5 6.5 7.6 88 0.9 SW 13 19 7 10 1026.0 1026.0 1.2
20/10:30pm 8.8 5.6 6.8 87 0.9 SW 13 17 7 9 1026.0 1026.0 1.2
20/10:00pm 9.3 6.2 7.4 88 0.9 SW 13 17 7 9 1025.8 1025.8 1.2
20/09:30pm 8.9 5.3 6.7 86 1.0 SW 15 22 8 12 1025.7 1025.7 1.2
20/09:00pm 8.9 6.2 7.4 90 0.7 SW 11 13 6 7 1025.5 1025.5 1.2
20/08:30pm 9.5 6.0 7.4 87 1.0 SW 15 24 8 13 1025.5 1025.5 0.8
20/08:00pm 8.7 5.4 6.3 85 1.1 SW 13 15 7 8 1025.1 1025.1 0.8
20/07:30pm 9.6 6.0 6.7 82 1.3 SW 15 19 8 10 1024.9 1024.9 0.8
20/07:00pm 9.9 5.8 6.1 77 1.8 SSW 17 26 9 14 1024.7 1024.7 0.8
20/06:30pm 10.1 6.4 6.3 77 1.8 SSW 15 19 8 10 1024.2 1024.2 0.8
20/06:00pm 10.9 6.5 6.6 75 2.0 SSW 19 28 10 15 1023.8 1023.8 0.8
20/05:30pm 10.6 6.3 5.2 69 2.4 SSW 17 20 9 11 1023.4 1023.4 0.8
20/05:00pm 11.3 7.5 5.8 69 2.6 SSW 15 20 8 11 1023.1 1023.1 0.8
20/04:30pm 12.0 6.6 6.3 68 2.7 SSW 24 32 13 17 1022.7 1022.7 0.8
20/04:00pm 12.6 8.1 6.9 68 2.7 SSW 20 26 11 14 1022.4 1022.4 0.8
20/03:30pm 13.5 8.4 7.5 67 2.9 SSW 24 35 13 19 1022.1 1022.1 0.8

Other Formats:

Comma delimited format used in spreadsheet applications
http://www.bom.gov.au/fwo/IDS60801/IDS60801.95661.axf

JavaScript Object Notation format (JSON) in row-major order
http://www.bom.gov.au/fwo/IDS60801/IDS60801.95661.json